Hinton, Virginia
Current Conditions -  °F | °C
As of 11:55 PM on Friday 21 Nov 2014 (Local Time) from KVBW Reporting Station
Clear Clear  
Wind Chill: -8°   Ceiling: Unl
Heat Index: -8°   Visibility: 10mi
Dew Point: -11°   Wind: 0mph
Humidity: 82%   Direction: NA
Pressure: 30.48"   Gusts: NA
Location:  38.47°N, 78.97°W
Report Text: KVBW 220455Z AUTO 00000KT 10SM CLR M08/M11 A3048 RMK AO2 T10801106
Loading
Personal Weather Stations






























Interactive Weather Map New forecast layout! Learn more

10-Day Weather Forecast

Advertisements
Track Severe Weather on mobile